Portada
METAR-TAF:

METAR-TAF

Aeroports :

Jabalpur, Índia

latitud: 23-10-54N, longitud: 80-03-31E, altitud: 495 m

Observació

L'informe es va fer fa 5 hores i 24 minuts, a les 17:00 UTC
Vent 6 kt del Est/Nord-Est
Temperatura 16°C
Humitat 68%
Pressió 1020 hPa
Visibilitat: 5000 m
calitja

METAR: VAJB 171700Z 07006KT 5000 HZ NSC 16/10 Q1020

Hora: 03:54 (22:24 UTC)

Pronòstic

L'informe es va fer fa 2 hores i 24 minuts, a les 20:00 UTC
Pronòstic vàlid del 17 a les 21 UTC al 18 a les 06 UTC
Vent 5 kt del Nord/Nord-Est
Visibilitat: 4000 m
calitja
Evolucionant progressivament
l' 18 a les 00 UTC al 18 a les 02 UTC
Visibilitat: 3000 m
calitja
Evolucionant progressivament
l' 18 a les 04 UTC al 18 a les 06 UTC
Vent 10 kt del Nord-Est
Visibilitat: 5000 m
calitja

TAF: VAJB 172000Z 1721/1806 02005KT 4000 HZ NSC BECMG 1800/1802 3000 HZ NSC BECMG 1804/1806 05010KT 5000 HZ NSC

Observacions i pronòstics meteorològics de més de 4000 aeroports (METAR i TAF).

Les estacions disponibles són els punts grocs i vermells al mapa.

Posi el ratolí al punt desitjat per veure el nom de l'estació.

Feu clic per veure les observacions i els pronòstics meteorològics.

Per canviar el mapa: feu clic els botons verds amb una creu de color negre per apropar; al botó verd amb un guió per allunyar la imatge; o en les fletxes verdes per a mapes adjacents.


METAR-TAF: